createdAt,value
2019-05-16T00:01:19.259Z,98655.55
2019-05-16T00:03:29.123Z,98657.02
2019-05-16T00:05:50.833Z,98645.59
2019-05-16T00:07:52.726Z,98642.95
2019-05-16T00:10:04.357Z,98636.37
2019-05-16T00:12:15.219Z,98636.20
2019-05-16T00:14:28.037Z,98633.30
2019-05-16T00:16:38.798Z,98630.41
2019-05-16T00:18:49.739Z,98631.11
2019-05-16T00:21:00.617Z,98627.83
2019-05-16T00:23:11.531Z,98624.80
2019-05-16T00:25:22.487Z,98625.81
2019-05-16T00:27:33.327Z,98622.46
2019-05-16T00:29:44.193Z,98618.91
2019-05-16T00:31:55.030Z,98619.71
2019-05-16T00:34:05.917Z,98613.02
2019-05-16T00:36:18.857Z,98617.34
2019-05-16T00:38:29.638Z,98609.73
2019-05-16T00:40:40.470Z,98609.62
2019-05-16T00:42:51.314Z,98606.31
2019-05-16T00:45:04.261Z,98607.70
2019-05-16T00:47:15.199Z,98605.12
2019-05-16T00:49:28.093Z,98601.97
2019-05-16T00:51:38.917Z,98601.97
2019-05-16T00:53:49.780Z,98607.17
2019-05-16T00:56:01.307Z,98605.05
2019-05-16T00:58:12.228Z,98600.73
2019-05-16T01:00:45.309Z,98602.47
2019-05-16T01:02:57.868Z,98596.48
2019-05-16T01:05:09.043Z,98597.31
2019-05-16T01:07:19.930Z,98589.75
2019-05-16T01:09:30.800Z,98591.06
2019-05-16T01:11:41.637Z,98593.64
2019-05-16T01:13:52.473Z,98589.75
2019-05-16T01:16:03.429Z,98587.81
2019-05-16T01:18:14.288Z,98588.84
2019-05-16T01:20:25.144Z,98590.22
2019-05-16T01:22:38.222Z,98590.67
2019-05-16T01:24:49.260Z,98590.64
2019-05-16T01:27:00.290Z,98593.34
2019-05-16T01:29:11.814Z,98593.95
2019-05-16T01:31:22.792Z,98584.97
2019-05-16T01:33:33.836Z,98585.42
2019-05-16T01:35:44.724Z,98587.76
2019-05-16T01:37:57.952Z,98586.17
2019-05-16T01:40:08.537Z,98583.72
2019-05-16T01:42:19.373Z,98581.59
2019-05-16T01:44:30.230Z,98577.89
2019-05-16T01:46:42.970Z,98581.03
2019-05-16T01:48:53.805Z,98578.02
2019-05-16T01:51:04.660Z,98577.72
2019-05-16T01:53:17.668Z,98580.89
2019-05-16T01:55:28.608Z,98575.89
2019-05-16T01:57:39.483Z,98571.22
2019-05-16T01:59:50.314Z,98575.56
2019-05-16T02:02:01.247Z,98566.08
2019-05-16T02:04:12.433Z,98573.95
2019-05-16T02:06:23.352Z,98569.36
2019-05-16T02:08:34.194Z,98563.45
2019-05-16T02:10:45.156Z,98568.82
2019-05-16T02:12:58.148Z,98564.77
2019-05-16T02:15:09.047Z,98567.85
2019-05-16T02:17:19.903Z,98566.95
2019-05-16T02:19:30.736Z,98562.52
2019-05-16T02:21:41.600Z,98563.19
2019-05-16T02:23:52.449Z,98564.25
2019-05-16T02:26:03.400Z,98558.38
2019-05-16T02:28:14.346Z,98557.16
2019-05-16T02:30:25.354Z,98555.28
2019-05-16T02:32:36.211Z,98554.28
2019-05-16T02:34:47.038Z,98552.84
2019-05-16T02:37:17.985Z,98549.66
2019-05-16T02:39:11.436Z,98545.33
2019-05-16T02:41:22.525Z,98544.97
2019-05-16T02:43:33.363Z,98541.59
2019-05-16T02:45:44.178Z,98539.16
2019-05-16T02:47:55.037Z,98545.05
2019-05-16T02:50:06.066Z,98538.48
2019-05-16T02:52:16.948Z,98547.98
2019-05-16T02:54:27.780Z,98551.87
2019-05-16T02:56:41.483Z,98551.01
2019-05-16T02:58:52.308Z,98537.64
2019-05-16T03:01:03.407Z,98535.88
2019-05-16T03:03:14.359Z,98531.81
2019-05-16T03:05:25.493Z,98528.79
2019-05-16T03:07:43.504Z,98526.90
2019-05-16T03:09:51.531Z,98527.43
2019-05-16T03:12:02.562Z,98523.30
2019-05-16T03:14:13.449Z,98523.74
2019-05-16T03:16:25.351Z,98522.06
2019-05-16T03:18:41.127Z,98523.30
2019-05-16T03:20:51.231Z,98520.70
2019-05-16T03:23:02.588Z,98523.83
2019-05-16T03:25:13.786Z,98520.64
2019-05-16T03:27:24.757Z,98514.66
2019-05-16T03:29:35.685Z,98511.26
2019-05-16T03:31:46.537Z,98503.05
2019-05-16T03:34:05.381Z,98507.56
2019-05-16T03:36:14.810Z,98504.30
2019-05-16T03:38:22.871Z,98494.17
2019-05-16T03:40:34.217Z,98499.22
2019-05-16T03:42:45.178Z,98501.27
2019-05-16T03:44:56.019Z,98496.42
2019-05-16T03:47:06.847Z,98501.41
2019-05-16T03:49:17.702Z,98493.49
2019-05-16T03:51:30.872Z,98490.67
2019-05-16T03:53:41.326Z,98485.64
2019-05-16T03:55:52.375Z,98491.83
2019-05-16T03:58:03.340Z,98489.55
2019-05-16T04:00:14.703Z,98494.18
2019-05-16T04:02:25.516Z,98492.48
2019-05-16T04:04:36.470Z,98491.93
2019-05-16T04:06:50.138Z,98481.58
2019-05-16T04:09:01.531Z,98485.73
2019-05-16T04:11:13.106Z,98484.24
2019-05-16T04:13:24.051Z,98478.20
2019-05-16T04:15:34.995Z,98479.74
2019-05-16T04:17:45.819Z,98482.06
2019-05-16T04:19:56.724Z,98474.21
2019-05-16T04:22:12.973Z,98466.81
2019-05-16T04:24:23.836Z,98465.52
2019-05-16T04:26:36.136Z,98465.42
2019-05-16T04:28:47.128Z,98469.67
2019-05-16T04:31:01.471Z,98463.23
2019-05-16T04:33:11.078Z,98467.41
2019-05-16T04:35:21.989Z,98463.61
2019-05-16T04:37:32.919Z,98467.27
2019-05-16T04:39:43.873Z,98464.20
2019-05-16T04:41:54.746Z,98467.45
2019-05-16T04:44:05.725Z,98464.28
2019-05-16T04:46:16.576Z,98464.95
2019-05-16T04:48:27.410Z,98464.56
2019-05-16T04:50:41.799Z,98464.51
2019-05-16T04:52:51.948Z,98466.45
2019-05-16T04:55:05.033Z,98468.42
2019-05-16T04:57:15.856Z,98464.88
2019-05-16T04:59:26.739Z,98462.98
2019-05-16T05:01:37.551Z,98469.63
2019-05-16T05:04:02.073Z,98462.77
2019-05-16T05:06:01.615Z,98462.88
2019-05-16T05:08:14.516Z,98462.45
2019-05-16T05:10:25.413Z,98461.31
2019-05-16T05:12:36.245Z,98460.05
2019-05-16T05:14:47.087Z,98465.97
2019-05-16T05:16:57.960Z,98467.22
2019-05-16T05:19:10.921Z,98459.02
2019-05-16T05:21:21.554Z,98458.48
2019-05-16T05:23:32.413Z,98459.34
2019-05-16T05:25:43.389Z,98457.36
2019-05-16T05:27:54.238Z,98454.08
2019-05-16T05:30:05.444Z,98444.55
2019-05-16T05:32:16.322Z,98452.30
2019-05-16T05:34:27.142Z,98448.80
2019-05-16T05:36:40.616Z,98451.67
2019-05-16T05:39:06.265Z,98458.71
2019-05-16T05:41:03.499Z,98455.49
2019-05-16T05:43:14.343Z,98455.02
2019-05-16T05:45:25.324Z,98448.97
2019-05-16T05:47:36.178Z,98447.87
2019-05-16T05:49:47.104Z,98457.38
2019-05-16T05:52:00.655Z,98447.19
2019-05-16T05:54:11.093Z,98440.97
2019-05-16T05:56:22.048Z,98445.95
2019-05-16T05:58:33.005Z,98445.87
2019-05-16T06:00:43.958Z,98444.77
2019-05-16T06:02:54.833Z,98444.77
2019-05-16T06:05:05.983Z,98435.52
2019-05-16T06:07:16.949Z,98443.47
2019-05-16T06:09:32.589Z,98438.53
2019-05-16T06:11:41.243Z,98444.27
2019-05-16T06:13:52.089Z,98436.46
2019-05-16T06:16:03.732Z,98436.98
2019-05-16T06:18:14.591Z,98439.14
2019-05-16T06:20:25.525Z,98432.53
2019-05-16T06:22:36.397Z,98432.91
2019-05-16T06:24:47.230Z,98432.67
2019-05-16T06:26:58.240Z,98425.91
2019-05-16T06:29:10.478Z,98421.66
2019-05-16T06:31:22.315Z,98421.90
2019-05-16T06:33:33.358Z,98423.73
2019-05-16T06:35:44.306Z,98424.55
2019-05-16T06:37:55.165Z,98419.91
2019-05-16T06:40:06.513Z,98416.23
2019-05-16T06:42:17.406Z,98415.87
2019-05-16T06:44:30.665Z,98421.55
2019-05-16T06:46:56.745Z,98416.22
2019-05-16T06:48:53.835Z,98411.62
2019-05-16T06:51:04.778Z,98409.52
2019-05-16T06:53:15.672Z,98409.09
2019-05-16T06:55:26.560Z,98414.28
2019-05-16T06:57:37.550Z,98402.98
2019-05-16T06:59:50.023Z,98402.63
2019-05-16T07:02:01.080Z,98398.17
2019-05-16T07:04:12.024Z,98393.48
2019-05-16T07:06:47.607Z,98397.98
2019-05-16T07:08:35.749Z,98397.02
2019-05-16T07:10:47.480Z,98396.12
2019-05-16T07:13:00.694Z,98395.82
2019-05-16T07:15:12.558Z,98394.55
2019-05-16T07:17:23.554Z,98390.85
2019-05-16T07:19:35.506Z,98385.52
2019-05-16T07:21:46.471Z,98388.84
2019-05-16T07:23:57.325Z,98385.33
2019-05-16T07:26:09.962Z,98382.66
2019-05-16T07:28:21.306Z,98389.92
2019-05-16T07:30:32.493Z,98390.58
2019-05-16T07:32:43.331Z,98392.94
2019-05-16T07:34:54.188Z,98392.48
2019-05-16T07:37:05.075Z,98388.95
2019-05-16T07:39:15.932Z,98389.41
2019-05-16T07:41:26.781Z,98384.87
2019-05-16T07:43:39.929Z,98382.63
2019-05-16T07:45:51.304Z,98377.26
2019-05-16T07:48:02.686Z,98386.83
2019-05-16T07:50:13.851Z,98382.56
2019-05-16T07:52:24.708Z,98380.17
2019-05-16T07:54:35.559Z,98372.47
2019-05-16T07:56:46.393Z,98375.70
2019-05-16T07:58:57.238Z,98370.48
2019-05-16T08:01:12.636Z,98366.73
2019-05-16T08:03:20.877Z,98364.76
2019-05-16T08:05:33.580Z,98370.19
2019-05-16T08:07:44.534Z,98368.23
2019-05-16T08:09:55.475Z,98372.14
2019-05-16T08:12:06.445Z,98364.56
2019-05-16T08:14:17.436Z,98363.28
2019-05-16T08:16:30.604Z,98363.66
2019-05-16T08:20:53.981Z,98363.06
2019-05-16T08:23:04.850Z,98355.52
2019-05-16T08:25:15.809Z,98355.06
2019-05-16T08:27:26.644Z,98351.82
2019-05-16T08:29:39.871Z,98353.53
2019-05-16T08:31:52.805Z,98344.44
2019-05-16T08:34:03.223Z,98348.08
2019-05-16T08:36:14.115Z,98342.41
2019-05-16T08:38:24.971Z,98343.58
2019-05-16T08:41:01.275Z,98337.14
2019-05-16T08:42:51.553Z,98346.29
2019-05-16T08:45:02.173Z,98329.27
2019-05-16T08:47:13.406Z,98329.91
2019-05-16T08:49:24.365Z,98328.41
2019-05-16T08:50:09.657Z,98360.88
2019-05-16T08:51:35.204Z,98321.48
2019-05-16T08:53:46.046Z,98315.20
2019-05-16T08:55:57.016Z,98311.92
2019-05-16T08:58:13.244Z,98311.48
2019-05-16T09:00:21.909Z,98308.49
2019-05-16T09:02:36.757Z,98311.20
2019-05-16T09:04:45.871Z,98305.89
2019-05-16T09:06:56.822Z,98302.24
2019-05-16T09:09:26.491Z,98291.30
2019-05-16T09:11:39.234Z,98298.84
2019-05-16T09:13:33.559Z,98294.48
2019-05-16T09:15:47.892Z,98289.41
2019-05-16T09:17:58.091Z,98284.36
2019-05-16T09:20:09.386Z,98282.31
2019-05-16T09:22:20.379Z,98275.47
2019-05-16T09:24:31.311Z,98276.18
2019-05-16T09:26:42.151Z,98269.64
2019-05-16T09:28:52.990Z,98264.80
2019-05-16T09:31:04.038Z,98261.73
2019-05-16T09:33:17.252Z,98258.42
2019-05-16T09:35:28.172Z,98260.80
2019-05-16T09:37:39.186Z,98264.28
2019-05-16T09:39:50.131Z,98261.06
2019-05-16T09:42:01.090Z,98256.91
2019-05-16T09:44:12.049Z,98256.91
2019-05-16T09:46:22.902Z,98252.97
2019-05-16T09:48:33.861Z,98251.21
2019-05-16T09:50:46.884Z,98247.98
2019-05-16T09:52:58.102Z,98241.22
2019-05-16T09:55:09.123Z,98246.09
2019-05-16T09:57:19.973Z,98241.58
2019-05-16T09:59:30.927Z,98245.50
2019-05-16T10:01:41.868Z,98241.80
2019-05-16T10:03:52.736Z,98233.83
2019-05-16T10:06:03.671Z,98236.34
2019-05-16T10:08:17.073Z,98235.74
2019-05-16T10:10:27.517Z,98224.42
2019-05-16T10:12:38.350Z,98216.72
2019-05-16T10:14:49.330Z,98220.16
2019-05-16T10:17:00.167Z,98216.20
2019-05-16T10:19:11.137Z,98215.83
2019-05-16T10:21:21.992Z,98210.55
2019-05-16T10:23:32.873Z,98209.96
2019-05-16T10:25:43.829Z,98202.00
2019-05-16T10:27:54.762Z,98205.70
2019-05-16T10:30:08.427Z,98209.18
2019-05-16T10:32:19.267Z,98209.69
2019-05-16T10:34:30.107Z,98198.22
2019-05-16T10:36:41.055Z,98203.36
2019-05-16T10:38:51.917Z,98198.08
2019-05-16T10:41:02.968Z,98193.52
2019-05-16T10:43:13.927Z,98196.65
2019-05-16T10:45:27.153Z,98182.83
2019-05-16T10:47:37.751Z,98184.51
2019-05-16T10:49:48.597Z,98178.89
2019-05-16T10:51:59.456Z,98177.84
2019-05-16T10:54:13.978Z,98171.81
2019-05-16T10:56:23.191Z,98174.99
2019-05-16T10:58:37.982Z,98174.41
2019-05-16T11:01:11.793Z,98170.19
2019-05-16T11:03:00.233Z,98173.31
2019-05-16T11:05:25.051Z,98165.50
2019-05-16T11:07:29.429Z,98166.77
2019-05-16T11:09:39.483Z,98165.77
2019-05-16T11:11:50.436Z,98156.19
2019-05-16T11:14:01.302Z,98159.41
2019-05-16T11:16:12.159Z,98153.21
2019-05-16T11:18:23.196Z,98152.53
2019-05-16T11:20:34.092Z,98149.92
2019-05-16T11:22:47.566Z,98146.48
2019-05-16T11:24:57.696Z,98147.19
2019-05-16T11:27:08.539Z,98141.12
2019-05-16T11:29:19.382Z,98141.57
2019-05-16T11:31:30.442Z,98142.34
2019-05-16T11:33:41.305Z,98142.77
2019-05-16T11:35:52.272Z,98143.51
2019-05-16T11:38:03.224Z,98136.95
2019-05-16T11:40:14.488Z,98136.95
2019-05-16T11:42:27.847Z,98137.33
2019-05-16T11:44:38.383Z,98136.88
2019-05-16T11:46:49.441Z,98138.34
2019-05-16T11:49:00.330Z,98128.16
2019-05-16T11:51:11.306Z,98133.29
2019-05-16T11:53:22.153Z,98127.64
2019-05-16T11:55:35.458Z,98129.54
2019-05-16T11:57:47.579Z,98125.45
2019-05-16T11:59:58.750Z,98119.16
2019-05-16T12:02:09.709Z,98124.97
2019-05-16T12:04:20.663Z,98122.05
2019-05-16T12:06:31.521Z,98122.61
2019-05-16T12:08:42.561Z,98117.63
2019-05-16T12:10:53.451Z,98110.36
2019-05-16T12:13:07.368Z,98115.20
2019-05-16T12:15:20.158Z,98106.41
2019-05-16T12:17:30.610Z,98111.43
2019-05-16T12:19:43.927Z,98102.94
2019-05-16T12:21:56.967Z,98101.13
2019-05-16T12:24:07.525Z,98097.74
2019-05-16T12:26:18.510Z,98094.17
2019-05-16T12:28:29.384Z,98099.50
2019-05-16T12:30:40.640Z,98092.03
2019-05-16T12:32:51.613Z,98091.88
2019-05-16T12:35:06.323Z,98085.65
2019-05-16T12:37:16.645Z,98076.83
2019-05-16T12:39:27.489Z,98094.51
2019-05-16T12:41:40.983Z,98088.15
2019-05-16T12:43:53.615Z,98089.41
2019-05-16T12:46:03.990Z,98086.50
2019-05-16T12:48:19.984Z,98088.64
2019-05-16T12:50:28.944Z,98085.25
2019-05-16T12:52:40.210Z,98086.50
2019-05-16T12:54:51.049Z,98077.38
2019-05-16T12:57:02.024Z,98078.81
2019-05-16T12:59:18.583Z,98076.39
2019-05-16T13:01:30.687Z,98078.10
2019-05-16T13:03:38.562Z,98078.73
2019-05-16T13:05:49.674Z,98074.86
2019-05-16T13:08:00.496Z,98065.95
2019-05-16T13:10:13.258Z,98064.58
2019-05-16T13:12:26.928Z,98060.80
2019-05-16T13:14:40.070Z,98057.89
2019-05-16T13:16:49.630Z,98058.22
2019-05-16T13:19:00.501Z,98057.34
2019-05-16T13:21:11.435Z,98053.34
2019-05-16T13:23:22.324Z,98049.64
2019-05-16T13:25:33.183Z,98051.05
2019-05-16T13:27:44.258Z,98045.70
2019-05-16T13:29:57.875Z,98042.25
2019-05-16T13:32:08.374Z,98035.47
2019-05-16T13:34:19.235Z,98032.18
2019-05-16T13:36:30.269Z,98035.32
2019-05-16T13:38:41.117Z,98030.09
2019-05-16T13:40:52.016Z,98024.84
2019-05-16T13:43:03.051Z,98022.89
2019-05-16T13:45:14.017Z,98022.07
2019-05-16T13:47:26.825Z,98017.38
2019-05-16T13:49:38.418Z,98013.03
2019-05-16T13:51:49.812Z,98010.68
2019-05-16T13:54:00.742Z,98014.70
2019-05-16T13:56:13.535Z,98010.77
2019-05-16T13:58:24.602Z,98005.98
2019-05-16T14:00:37.528Z,97999.35
2019-05-16T14:02:48.387Z,98001.36
2019-05-16T14:04:59.280Z,97993.34
2019-05-16T14:07:10.142Z,97992.95
2019-05-16T14:09:21.074Z,97994.72
2019-05-16T14:11:31.941Z,97992.80
2019-05-16T14:13:42.813Z,97985.84
2019-05-16T14:15:53.662Z,97986.72
2019-05-16T14:18:07.381Z,97981.47
2019-05-16T14:20:18.306Z,97983.48
2019-05-16T14:22:29.448Z,97980.98
2019-05-16T14:24:40.390Z,97982.78
2019-05-16T14:26:51.264Z,97975.18
2019-05-16T14:29:02.166Z,97971.52
2019-05-16T14:31:13.281Z,97971.52
2019-05-16T14:33:24.136Z,97971.66
2019-05-16T14:35:37.396Z,97971.52
2019-05-16T14:37:47.872Z,97974.51
2019-05-16T14:40:01.359Z,97968.89
2019-05-16T14:42:11.706Z,97967.24
2019-05-16T14:44:22.570Z,97965.05
2019-05-16T14:46:33.435Z,97959.80
2019-05-16T14:48:44.397Z,97955.70
2019-05-16T14:50:57.441Z,97964.68
2019-05-16T14:53:08.120Z,97957.18
2019-05-16T14:55:19.080Z,97959.98
2019-05-16T14:57:29.946Z,97954.19
2019-05-16T14:59:40.816Z,97955.70
2019-05-16T15:01:51.675Z,97957.02
2019-05-16T15:04:02.694Z,97952.97
2019-05-16T15:06:13.645Z,97955.98
2019-05-16T15:08:24.531Z,97943.77
2019-05-16T15:10:37.601Z,97953.45
2019-05-16T15:12:48.368Z,97951.50
2019-05-16T15:15:15.876Z,97952.05
2019-05-16T15:17:12.268Z,97953.50
2019-05-16T15:19:23.213Z,97948.66
2019-05-16T15:21:34.160Z,97949.30
2019-05-16T15:23:45.045Z,97946.12
2019-05-16T15:25:56.002Z,97944.13
2019-05-16T15:28:07.588Z,97939.16
2019-05-16T15:30:19.431Z,97938.72
2019-05-16T15:32:31.905Z,97941.47
2019-05-16T15:34:42.946Z,97930.68
2019-05-16T15:36:56.518Z,97938.66
2019-05-16T15:39:08.079Z,97932.86
2019-05-16T15:41:19.242Z,97933.41
2019-05-16T15:43:30.207Z,97934.45
2019-05-16T15:45:43.461Z,97938.02
2019-05-16T15:47:59.625Z,97930.47
2019-05-16T15:50:09.622Z,97934.84
2019-05-16T15:52:20.605Z,97925.38
2019-05-16T15:54:31.557Z,97929.20
2019-05-16T15:56:46.700Z,97929.34
2019-05-16T15:58:57.667Z,97925.98
2019-05-16T16:01:08.641Z,97928.03
2019-05-16T16:03:19.510Z,97924.85
2019-05-16T16:05:30.360Z,97921.96
2019-05-16T16:07:41.224Z,97917.41
2019-05-16T16:09:52.059Z,97920.24
2019-05-16T16:12:03.023Z,97914.85
2019-05-16T16:14:14.001Z,97914.56
2019-05-16T16:16:26.772Z,97905.87
2019-05-16T16:18:37.968Z,97912.42
2019-05-16T16:20:49.024Z,97907.05
2019-05-16T16:22:59.942Z,97913.56
2019-05-16T16:25:11.003Z,97911.84
2019-05-16T16:27:21.939Z,97906.11
2019-05-16T16:29:33.313Z,97908.73
2019-05-16T16:31:44.541Z,97903.00
2019-05-16T16:33:57.251Z,97902.33
2019-05-16T16:36:08.185Z,97906.16
2019-05-16T16:38:19.012Z,97904.43
2019-05-16T16:40:30.134Z,97902.33
2019-05-16T16:42:40.980Z,97905.96
2019-05-16T16:44:51.836Z,97902.59
2019-05-16T16:47:02.986Z,97903.11
2019-05-16T16:49:14.080Z,97902.77
2019-05-16T16:51:26.859Z,97901.94
2019-05-16T16:53:38.154Z,97903.70
2019-05-16T16:55:49.025Z,97900.70
2019-05-16T16:57:59.927Z,97900.44
2019-05-16T17:00:11.934Z,97899.27
2019-05-16T17:02:23.935Z,97899.56
2019-05-16T17:04:38.344Z,97903.12
2019-05-16T17:06:47.703Z,97899.45
2019-05-16T17:08:58.572Z,97899.05
2019-05-16T17:11:09.560Z,97899.67
2019-05-16T17:13:20.495Z,97899.45
2019-05-16T17:15:31.529Z,97892.45
2019-05-16T17:17:42.381Z,97895.05
2019-05-16T17:19:53.262Z,97892.28
2019-05-16T17:22:14.611Z,97892.17
2019-05-16T17:24:17.108Z,97893.36
2019-05-16T17:26:28.080Z,97889.24
2019-05-16T17:28:39.065Z,97892.59
2019-05-16T17:30:49.955Z,97894.48
2019-05-16T17:33:00.806Z,97891.63
2019-05-16T17:35:12.917Z,97889.02
2019-05-16T17:37:23.854Z,97892.45
2019-05-16T17:39:36.781Z,97890.71
2019-05-16T17:41:54.401Z,97890.71
2019-05-16T17:44:00.275Z,97888.69
2019-05-16T17:46:11.378Z,97894.41
2019-05-16T17:48:22.229Z,97892.53
2019-05-16T17:50:33.309Z,97891.47
2019-05-16T17:52:44.388Z,97896.75
2019-05-16T17:54:55.356Z,97895.70
2019-05-16T17:57:07.431Z,97896.87
2019-05-16T17:59:18.577Z,97900.10
2019-05-16T18:01:29.490Z,97894.05
2019-05-16T18:03:40.483Z,97889.30
2019-05-16T18:05:51.507Z,97897.97
2019-05-16T18:08:02.466Z,97890.86
2019-05-16T18:10:15.804Z,97889.32
2019-05-16T18:12:27.527Z,97893.38
2019-05-16T18:14:38.677Z,97892.90
2019-05-16T18:16:58.285Z,97885.05
2019-05-16T18:19:02.730Z,97890.14
2019-05-16T18:21:13.780Z,97886.61
2019-05-16T18:23:24.682Z,97887.69
2019-05-16T18:25:36.440Z,97883.92
2019-05-16T18:27:47.653Z,97889.49
2019-05-16T18:29:58.507Z,97886.05
2019-05-16T18:32:09.504Z,97887.16
2019-05-16T18:34:20.385Z,97891.08
2019-05-16T18:36:31.412Z,97885.38
2019-05-16T18:38:42.378Z,97894.09
2019-05-16T18:40:53.262Z,97884.23
2019-05-16T18:43:04.351Z,97886.50
2019-05-16T18:45:16.616Z,97884.72
2019-05-16T18:47:27.700Z,97877.84
2019-05-16T18:49:38.664Z,97881.77
2019-05-16T18:51:49.608Z,97880.46
2019-05-16T18:54:00.592Z,97872.04
2019-05-16T18:56:11.573Z,97875.72
2019-05-16T18:58:22.587Z,97869.91
2019-05-16T19:00:33.546Z,97869.19
2019-05-16T19:02:44.436Z,97868.37
2019-05-16T19:04:57.788Z,97870.16
2019-05-16T19:07:08.410Z,97868.27
2019-05-16T19:09:19.458Z,97868.77
2019-05-16T19:11:30.323Z,97864.88
2019-05-16T19:13:41.214Z,97861.34
2019-05-16T19:15:52.056Z,97863.00
2019-05-16T19:18:03.027Z,97865.27
2019-05-16T19:20:14.346Z,97862.91
2019-05-16T19:22:26.454Z,97869.33
2019-05-16T19:24:37.536Z,97862.22
2019-05-16T19:26:48.616Z,97858.41
2019-05-16T19:28:59.453Z,97866.59
2019-05-16T19:31:10.500Z,97866.34
2019-05-16T19:33:21.524Z,97869.09
2019-05-16T19:35:32.584Z,97869.23
2019-05-16T19:37:43.553Z,97876.00
2019-05-16T19:39:56.813Z,97873.38
2019-05-16T19:42:07.423Z,97877.64
2019-05-16T19:44:18.299Z,97879.81
2019-05-16T19:46:29.398Z,97880.05
2019-05-16T19:48:40.406Z,97878.63
2019-05-16T19:50:51.397Z,97878.49
2019-05-16T19:53:02.482Z,97876.63
2019-05-16T19:55:13.858Z,97878.41
2019-05-16T19:57:26.604Z,97871.55
2019-05-16T19:59:37.611Z,97881.14
2019-05-16T20:01:48.581Z,97878.91
2019-05-16T20:03:59.625Z,97882.81
2019-05-16T20:06:10.616Z,97884.56
2019-05-16T20:08:21.562Z,97884.45
2019-05-16T20:10:32.550Z,97887.19
2019-05-16T20:12:43.504Z,97888.24
2019-05-16T20:15:07.696Z,97884.67
2019-05-16T20:17:07.509Z,97882.90
2019-05-16T20:19:18.540Z,97882.08
2019-05-16T20:21:29.525Z,97884.53
2019-05-16T20:23:40.394Z,97884.52
2019-05-16T20:25:51.287Z,97881.56
2019-05-16T20:28:02.254Z,97878.82
2019-05-16T20:30:13.534Z,97879.52
2019-05-16T20:32:24.443Z,97883.16
2019-05-16T20:34:37.150Z,97886.11
2019-05-16T20:36:48.167Z,97887.16
2019-05-16T20:38:59.049Z,97888.81
2019-05-16T20:41:10.011Z,97886.31
2019-05-16T20:43:20.983Z,97881.09
2019-05-16T20:45:31.835Z,97887.83
2019-05-16T20:47:42.703Z,97884.97
2019-05-16T20:49:53.657Z,97880.84
2019-05-16T20:52:06.917Z,97879.16
2019-05-16T20:54:17.614Z,97886.71
2019-05-16T20:56:28.517Z,97873.55
2019-05-16T20:58:39.349Z,97873.69
2019-05-16T21:00:50.309Z,97870.52
2019-05-16T21:03:01.205Z,97869.17
2019-05-16T21:05:12.185Z,97871.66
2019-05-16T21:07:23.064Z,97873.33
2019-05-16T21:09:33.906Z,97877.20
2019-05-16T21:11:46.850Z,97870.65
2019-05-16T21:13:57.524Z,97870.27
2019-05-16T21:16:08.380Z,97866.91
2019-05-16T21:18:19.345Z,97861.84
2019-05-16T21:20:30.296Z,97864.58
2019-05-16T21:22:41.325Z,97861.97
2019-05-16T21:24:52.290Z,97857.80
2019-05-16T21:27:03.265Z,97861.48
2019-05-16T21:29:16.512Z,97862.66
2019-05-16T21:31:27.671Z,97855.77
2019-05-16T21:33:38.576Z,97853.06
2019-05-16T21:35:49.636Z,97851.98
2019-05-16T21:38:00.504Z,97848.08
2019-05-16T21:40:11.349Z,97846.05
2019-05-16T21:42:22.297Z,97843.56
2019-05-16T21:44:33.174Z,97842.27
2019-05-16T21:46:44.232Z,97841.39
2019-05-16T21:48:56.709Z,97839.00
2019-05-16T21:51:08.048Z,97832.27
2019-05-16T21:53:19.087Z,97839.82
2019-05-16T21:55:30.094Z,97832.84
2019-05-16T21:57:41.115Z,97829.55
2019-05-16T21:59:52.085Z,97831.41
2019-05-16T22:02:03.118Z,97831.97
2019-05-16T22:04:13.981Z,97827.59
2019-05-16T22:06:24.969Z,97825.33
2019-05-16T22:08:36.341Z,97821.93
2019-05-16T22:10:47.470Z,97821.70
2019-05-16T22:12:58.407Z,97818.84
2019-05-16T22:15:09.486Z,97817.19
2019-05-16T22:17:20.332Z,97816.09
2019-05-16T22:19:31.308Z,97815.13
2019-05-16T22:21:42.202Z,97815.91
2019-05-16T22:23:53.249Z,97811.86
2019-05-16T22:26:04.419Z,97809.00
2019-05-16T22:28:17.176Z,97807.31
2019-05-16T22:30:28.320Z,97803.48
2019-05-16T22:32:39.483Z,97803.84
2019-05-16T22:34:50.349Z,97799.23
2019-05-16T22:37:01.448Z,97799.17
2019-05-16T22:39:12.257Z,97794.45
2019-05-16T22:41:23.233Z,97789.93
2019-05-16T22:43:34.082Z,97784.61
2019-05-16T22:45:46.775Z,97787.59
2019-05-16T22:47:57.810Z,97783.84
2019-05-16T22:50:09.194Z,97780.88
2019-05-16T22:52:20.174Z,97780.15
2019-05-16T22:54:31.002Z,97779.67
2019-05-16T22:56:41.876Z,97779.72
2019-05-16T22:58:52.753Z,97777.89
2019-05-16T23:01:03.828Z,97771.86
2019-05-16T23:03:17.232Z,97767.14
2019-05-16T23:05:27.713Z,97765.72
2019-05-16T23:07:38.601Z,97767.34
2019-05-16T23:09:49.530Z,97764.45
2019-05-16T23:12:00.574Z,97762.06
2019-05-16T23:14:11.409Z,97758.25
2019-05-16T23:16:22.284Z,97759.41
2019-05-16T23:18:33.103Z,97753.80
2019-05-16T23:20:43.954Z,97759.38
2019-05-16T23:22:56.275Z,97752.00
2019-05-16T23:25:07.955Z,97754.91
2019-05-16T23:27:18.858Z,97755.31
2019-05-16T23:29:29.854Z,97750.95
2019-05-16T23:31:40.705Z,97749.34
2019-05-16T23:33:51.566Z,97747.42
2019-05-16T23:36:02.500Z,97747.63
2019-05-16T23:38:19.408Z,97737.83
2019-05-16T23:40:26.243Z,97745.70
2019-05-16T23:42:37.279Z,97736.61
2019-05-16T23:44:48.264Z,97735.43
2019-05-16T23:46:59.275Z,97733.55
2019-05-16T23:49:10.213Z,97731.89
2019-05-16T23:51:21.062Z,97727.10
2019-05-16T23:53:31.935Z,97724.73
2019-05-16T23:55:42.783Z,97719.75
2019-05-16T23:57:53.660Z,97717.55
